Weather observations for the past three days for
Cheraw Municipal Lynch Bellinger Field
Imperial (Metric)
Date Time (edt) Wind (mph) Vis. (mi.) Weather Sky Cond. Temperature (ºF) Relative Humidity Wind Chill (°F) Heat Index (°F) Pressure Precipitation (in)
Air Dwpt 6 hour altimeter (in) sea level (mb) 1 hr 3 hr 6 hr
Max. Min.
07 01:15 W 3 10.00 A Few Clouds FEW120 69.8 66.2 88% 29.9 0.0
07 00:55 Calm 10.00 A Few Clouds FEW070 69.8 66.2 88% 29.9 0.0
07 00:35 Calm 10.00 Mostly Cloudy SCT027 BKN032 BKN070 71.6 66.2 83% 29.92 0.0
07 00:15 W 5 10.00 Light Rain FEW029 BKN033 OVC039 71.6 64.4 78% 29.93 0.0
06 23:55 W 6 10.00 Light Rain SCT040 SCT055 OVC070 73.4 64.4 74% 29.93 0.0
06 23:35 NW 5 10.00 Overcast BKN065 OVC075 75.2 64.4 69% 77 29.91 0.0
06 23:15 W 5 10.00 Overcast OVC070 75.2 62.6 65% 77 29.9 0.0
06 22:55 SW 5 10.00 Overcast OVC075 75.2 62.6 65% 77 29.89 0.0
06 22:35 SW 6 10.00 Overcast OVC070 77 62.6 61% 79 29.89 0.0
06 22:15 SW 8 10.00 Thunderstorm OVC070 77 62.6 61% 79 29.89 0.0
06 21:55 Calm 10.00 Overcast SCT070 BKN090 OVC110 73.4 62.6 69% 29.87 0.0
06 21:35 Calm 10.00 Mostly Cloudy BKN090 BKN120 73.4 62.6 69% 29.88 0.0
06 21:15 Calm 7.00 Mostly Cloudy SCT090 BKN110 75.2 62.6 65% 77 29.88 0.0
06 20:55 Calm 8.00 Mostly Cloudy BKN080 77 62.6 61% 79 29.88 0.0
06 20:35 SW 5 10.00 Partly Cloudy SCT080 77 62.6 61% 79 29.88 0.0
06 20:15 SW 5 10.00 Fair CLR 78.8 62.6 58% 80 29.88 0.0
06 19:55 SW 5 10.00 Fair CLR 78.8 62.6 58% 80 29.88 0.0
06 19:35 W 6 10.00 Fair CLR 80.6 62.6 54% 82 29.89 0.0
06 19:15 W 6 10.00 Fair CLR 80.6 62.6 54% 82 29.89 0.0
06 18:55 SW 6 10.00 Fair CLR 80.6 62.6 54% 82 29.89 0.0
06 18:35 W 7 10.00 Fair CLR 80.6 62.6 54% 82 29.89 0.0
06 18:15 W 7 G 14 10.00 Fair CLR 82.4 60.8 48% 83 29.89 0.0
06 17:55 W 9 10.00 Fair CLR 80.6 60.8 51% 81 29.89 0.0
06 17:35 W 10 G 18 10.00 Fair CLR 82.4 60.8 48% 83 29.89 0.0
06 17:15 W 9 G 16 10.00 Fair CLR 82.4 60.8 48% 83 29.89 0.0
06 16:55 SW 14 10.00 Fair CLR 82.4 60.8 48% 83 29.89 0.0
06 16:35 W 12 10.00 Fair CLR 80.6 60.8 51% 81 29.9 0.0
06 16:15 W 9 10.00 Fair CLR 80.6 60.8 51% 81 29.91 0.0
06 15:55 W 10 10.00 Fair CLR 80.6 60.8 51% 81 29.92 0.0
06 15:35 SW 10 10.00 Fair CLR 78.8 60.8 54% 80 29.92 0.0
06 15:15 W 8 10.00 Fair CLR 78.8 60.8 54% 80 29.93 0.0
06 14:55 W 12 G 21 10.00 A Few Clouds FEW070 77 60.8 57% 79 29.95 0.0
06 14:35 W 10 10.00 Fair CLR 78.8 60.8 54% 80 29.96 0.0
06 14:15 W 10 10.00 Fair CLR 78.8 60.8 54% 80 29.96 0.0
06 13:55 W 10 10.00 Fair CLR 77 60.8 57% 79 29.97 0.0
06 13:35 W 12 10.00 Fair CLR 77 60.8 57% 79 29.97 0.0
06 13:15 W 14 10.00 Fair CLR 77 60.8 57% 79 29.98 0.0
06 12:55 W 10 10.00 Fair CLR 77 60.8 57% 79 29.98 0.0
06 12:35 W 12 10.00 Fair CLR 75.2 60.8 61% 77 29.99 0.0
06 12:15 W 10 10.00 Fair CLR 75.2 60.8 61% 77 29.99 0.0
06 11:55 W 10 G 18 10.00 Fair CLR 75.2 60.8 61% 77 29.98 0.0
06 11:35 W 14 10.00 Fair CLR 77 59 54% 79 29.98 0.0
06 11:15 W 12 10.00 Fair CLR 75.2 59 57% 78 29.98 0.0
06 10:55 W 9 G 16 10.00 Fair CLR 73.4 59 61% 29.99 0.0
06 10:35 W 10 10.00 Fair CLR 71.6 59 65% 29.98 0.0
06 10:15 W 12 G 17 10.00 Fair CLR 69.8 57.2 64% 29.99 0.0
06 09:55 W 14 G 20 10.00 Fair CLR 71.6 57.2 61% 29.99 0.0
06 09:35 W 9 G 15 10.00 Fair CLR 69.8 57.2 64% 29.99 0.0
06 09:15 W 8 G 15 10.00 Fair CLR 68 57.2 69% 29.99 0.0
06 08:55 W 8 G 14 10.00 Fair CLR 68 57.2 69% 29.99 0.0
06 08:35 W 9 10.00 Fair CLR 68 59 73% 29.98 0.0
06 08:15 W 9 10.00 Fair CLR 66.2 57.2 73% 29.98 0.0
06 07:55 W 7 10.00 Fair CLR 66.2 57.2 73% 29.97 0.0
06 07:35 SW 7 10.00 Fair CLR 64.4 57.2 78% 29.97 0.0
06 07:15 SW 6 10.00 Fair CLR 64.4 55.4 73% 29.97 0.0
06 06:55 SW 6 10.00 Fair CLR 62.6 55.4 77% 29.96 0.0
06 06:35 SW 3 10.00 A Few Clouds FEW090 62.6 55.4 77% 29.95 0.0
06 06:15 SW 5 9.00 A Few Clouds FEW090 64.4 55.4 73% 29.96 0.0
06 05:55 SW 6 10.00 Fair CLR 64.4 55.4 73% 29.96 0.0
06 05:35 SW 5 10.00 Fair CLR 64.4 55.4 73% 29.97 0.0
06 05:15 SW 7 10.00 Fair CLR 64.4 55.4 73% 29.97 0.0
06 04:55 W 6 10.00 Fair CLR 64.4 55.4 73% 29.99 0.0
06 04:35 SW 3 10.00 Fair CLR 64.4 55.4 73% 29.98 0.0
06 04:15 Calm 10.00 Fair CLR 62.6 55.4 77% 29.98 0.0
06 03:55 SW 5 10.00 Fair CLR 62.6 53.6 73% 29.98 0.0
06 03:35 SW 5 10.00 Fair CLR 62.6 53.6 73% 29.97 0.0
06 03:15 SW 5 10.00 Fair CLR 62.6 53.6 73% 29.97 0.0
06 02:55 SW 3 10.00 Fair CLR 62.6 53.6 73% 29.98 0.0
06 02:35 SW 5 10.00 Fair CLR 62.6 53.6 73% 29.98 0.0
06 02:15 SW 3 10.00 Fair CLR 62.6 53.6 73% 29.98 0.0
06 01:55 Calm 10.00 Fair CLR 64.4 53.6 68% 29.99 0.0
06 01:35 SW 6 10.00 Fair CLR 64.4 53.6 68% 30 0.0
06 01:15 SW 6 10.00 Fair CLR 66.2 53.6 64% 30 0.0
06 00:55 SW 8 10.00 Fair CLR 66.2 53.6 64% 30 0.0
06 00:35 SW 7 10.00 Fair CLR 66.2 53.6 64% 30 0.0
06 00:15 SW 7 10.00 Fair CLR 66.2 53.6 64% 30 0.0
05 23:55 SW 10 10.00 Fair CLR 66.2 53.6 64% 30 0.0
05 23:35 SW 10 10.00 Fair CLR 68 53.6 60% 30 0.0
05 23:15 SW 12 G 20 9.00 Fair CLR 68 53.6 60% 30 0.0
05 22:55 SW 9 3.00 Fair with Haze CLR 68 53.6 60% 30.01 0.0
05 22:35 SW 9 2.50 Fair with Haze CLR 69.8 53.6 57% 30.01 0.0
05 22:15 SW 10 4.00 Fair with Haze CLR 69.8 53.6 57% 30 0.0
05 21:55 SW 8 5.00 Fair with Haze CLR 71.6 51.8 50% 29.99 0.0
05 21:35 SW 7 G 16 1.00 Fair with Haze CLR 71.6 51.8 50% 29.97 0.0
05 21:15 SW 6 9.00 Fair CLR 71.6 50 47% 29.96 0.0
05 20:55 Vrbl 5 10.00 Fair CLR 71.6 48.2 44% 29.96 0.0
05 20:35 SW 3 10.00 Fair CLR 73.4 48.2 41% 29.96 0.0
05 20:15 SW 6 10.00 Fair CLR 75.2 48.2 39% 77 29.95 0.0
05 19:55 SW 6 10.00 Fair CLR 77 48.2 36% 78 29.95 0.0
05 19:35 SW 8 10.00 Fair CLR 77 48.2 36% 78 29.95 0.0
05 19:15 SW 10 10.00 Fair CLR 78.8 46.4 32% 79 29.94 0.0
05 18:55 SW 13 10.00 A Few Clouds FEW070 80.6 46.4 30% 80 29.95 0.0
05 18:35 SW 9 G 18 10.00 Partly Cloudy SCT070 80.6 48.2 32% 80 29.95 0.0
05 18:15 SW 13 G 24 10.00 A Few Clouds FEW075 80.6 48.2 32% 80 29.96 0.0
05 17:55 SW 12 G 17 10.00 Fair CLR 82.4 48.2 30% 81 29.95 0.0
05 17:35 SW 7 10.00 Fair CLR 80.6 46.4 30% 80 29.96 0.0
05 17:15 SW 14 10.00 Fair CLR 80.6 46.4 30% 80 29.96 0.0
05 16:55 SW 10 10.00 A Few Clouds FEW070 82.4 46.4 28% 81 29.96 0.0
05 16:35 S 13 G 18 10.00 Partly Cloudy SCT070 82.4 48.2 30% 81 29.96 0.0
05 16:15 SW 12 G 17 10.00 Partly Cloudy SCT070 82.4 50 32% 81 29.97 0.0
05 15:55 SW 7 G 18 10.00 Partly Cloudy SCT070 82.4 48.2 30% 81 29.98 0.0
05 15:35 W 7 G 18 10.00 Fair CLR 82.4 48.2 30% 81 29.98 0.0
05 15:15 S 8 10.00 Fair CLR 80.6 48.2 32% 80 29.99 0.0
05 14:55 S 10 10.00 A Few Clouds FEW070 82.4 48.2 30% 81 30 0.0
05 14:35 SW 14 10.00 Partly Cloudy SCT070 80.6 48.2 32% 80 30.01 0.0
05 14:15 SW 8 G 16 10.00 Fair CLR 82.4 48.2 30% 81 30.01 0.0
05 13:55 SW 13 G 18 10.00 A Few Clouds FEW060 82.4 48.2 30% 81 30.01 0.0
05 13:35 Vrbl 7 G 18 10.00 Partly Cloudy SCT060 80.6 50 34% 80 30.01 0.0
05 13:15 W 9 10.00 Partly Cloudy SCT060 78.8 50 37% 79 30.03 0.0
05 12:55 SW 8 G 17 10.00 A Few Clouds FEW060 78.8 51.8 39% 79 30.03 0.0
05 12:35 Vrbl 7 G 17 10.00 A Few Clouds FEW048 FEW055 78.8 51.8 39% 79 30.04 0.0
05 12:15 S 8 10.00 A Few Clouds FEW048 77 53.6 44% 78 30.04 0.0
05 11:55 W 10 10.00 Fair CLR 78.8 53.6 42% 79 30.05 0.0
05 11:35 SW 9 G 15 10.00 Fair CLR 77 53.6 44% 78 30.05 0.0
05 11:15 W 8 10.00 Fair CLR 75.2 53.6 47% 78 30.06 0.0
05 10:55 W 7 G 13 10.00 Fair CLR 75.2 53.6 47% 78 30.05 0.0
05 10:35 Vrbl 6 G 13 10.00 Fair CLR 73.4 53.6 50% 30.05 0.0
05 10:15 Vrbl 7 10.00 Fair CLR 73.4 55.4 53% 30.05 0.0
05 09:55 W 12 10.00 Fair CLR 71.6 55.4 57% 30.05 0.0
05 09:35 W 9 10.00 Fair CLR 69.8 55.4 60% 30.05 0.0
05 09:15 W 8 10.00 Fair CLR 68 55.4 64% 30.05 0.0
05 08:55 W 7 10.00 Fair CLR 64.4 53.6 68% 30.05 0.0
05 08:35 Vrbl 6 10.00 Fair CLR 62.6 53.6 73% 30.05 0.0
05 08:15 SW 3 10.00 Fair CLR 59 53.6 82% 30.05 0.0
05 07:55 Calm 10.00 Fair CLR 55.4 51.8 88% 30.05 0.0
05 07:35 Calm 10.00 Fair CLR 51.8 50 94% 30.04 0.0
05 07:15 Calm 10.00 Fair CLR 51.8 50 94% 30.04 0.0
05 06:55 Calm 10.00 Fair CLR 50 48.2 94% 30.04 0.0
05 06:35 Calm 5.00 Fog/Mist CLR 48.2 46.4 94% 30.03 0.0
05 06:15 Calm 10.00 Fair CLR 50 50 100% 30.02 0.0
05 05:55 Calm 10.00 Fair CLR 50 48.2 94% 30.02 0.0
05 05:35 Calm 10.00 Fair CLR 50 48.2 94% 30.01 0.0
05 05:15 Calm 10.00 Fair CLR 51.8 50 94% 30.01 0.0
05 04:55 Calm 10.00 Fair CLR 51.8 50 94% 30.01 0.0
05 04:35 Calm 10.00 Fair CLR 53.6 50 88% 30.01 0.0
05 04:15 Calm 10.00 Fair CLR 55.4 50 82% 30.01 0.0
05 03:55 Calm 10.00 Fair CLR 53.6 50 88% 30 0.0
05 03:35 Calm 10.00 Fair CLR 57.2 50 77% 30 0.0
05 03:15 Calm 10.00 Fair CLR 59 50 72% 30 0.0
05 02:55 Calm 10.00 Fair CLR 59 50 72% 30 0.0
05 02:35 SW 5 10.00 Fair CLR 59 50 72% 30 0.0
05 02:15 SW 3 10.00 Fair CLR 59 50 72% 30 0.0
05 01:55 SW 5 10.00 Fair CLR 60.8 48.2 63% 30.01 0.0
05 01:40 SW 5 10.00 Fair CLR 60.8 48.2 63% 30.01 0.0
05 01:15 SW 6 10.00 Fair CLR 60.8 50 68% 30.02 0.0
05 00:55 SW 5 10.00 Fair CLR 62.6 48.2 60% 30.02 0.0
05 00:35 SW 7 10.00 Fair CLR 62.6 50 64% 30.02 0.0
05 00:15 SW 6 10.00 Fair CLR 64.4 50 60% 30.02 0.0
04 23:55 SW 7 10.00 Fair CLR 64.4 50 60% 30.02 0.0
04 23:35 SW 9 9.00 Fair CLR 66.2 50 56% 30.02 0.0
04 23:15 SW 7 10.00 Fair CLR 66.2 48.2 52% 30.02 0.0
04 22:55 SW 8 10.00 Fair CLR 66.2 48.2 52% 30.01 0.0
04 22:35 SW 6 G 13 10.00 Fair CLR 68 48.2 49% 30.01 0.0
04 22:15 SW 8 10.00 Fair CLR 68 46.4 46% 30 0.0
04 21:55 SW 8 10.00 Fair CLR 68 46.4 46% 30 0.0
04 21:35 SW 5 7.00 Fair CLR 68 44.6 43% 29.99 0.0
04 21:15 SW 5 10.00 Fair CLR 69.8 42.8 38% 29.98 0.0
04 20:55 SW 6 10.00 Fair CLR 69.8 42.8 38% 29.97 0.0
04 20:35 SW 8 10.00 Fair CLR 71.6 42.8 36% 29.97 0.0
04 20:15 SW 6 10.00 Fair CLR 73.4 42.8 33% 29.96 0.0
04 19:55 SW 7 G 15 10.00 Fair CLR 73.4 42.8 33% 29.96 0.0
04 19:35 SW 7 G 14 10.00 Fair CLR 75.2 42.8 31% 77 29.95 0.0
04 19:15 SW 8 10.00 Fair CLR 77 41 28% 78 29.95 0.0
04 18:55 SW 10 G 17 10.00 Fair CLR 78.8 39.2 24% 78 29.94 0.0
04 18:35 SW 10 G 17 10.00 Fair CLR 78.8 39.2 24% 78 29.95 0.0
04 18:15 SW 12 G 18 10.00 Fair CLR 80.6 39.2 23% 79 29.95 0.0
04 17:55 SW 12 G 17 10.00 Fair CLR 80.6 39.2 23% 79 29.95 0.0
04 17:35 SW 9 10.00 Fair CLR 80.6 39.2 23% 79 29.94 0.0
04 17:15 W 8 G 16 10.00 Fair CLR 80.6 37.4 21% 79 29.94 0.0
04 16:55 SW 8 G 16 10.00 Fair CLR 82.4 37.4 20% 80 29.95 0.0
04 16:35 SW 9 10.00 Fair CLR 82.4 39.2 21% 80 29.95 0.0
04 16:15 SW 7 G 18 10.00 Fair CLR 82.4 37.4 20% 80 29.96 0.0
04 15:35 W 12 10.00 Fair CLR 82.4 35.6 19% 80 29.97 0.0
04 15:15 Vrbl 5 G 14 10.00 Fair CLR 80.6 37.4 21% 79 29.98 0.0
04 14:55 Vrbl 6 G 13 10.00 Fair CLR 80.6 35.6 20% 79 29.99 0.0
04 14:35 NW 6 G 13 10.00 Fair CLR 78.8 37.4 23% 78 29.99 0.0
04 14:15 W 8 10.00 Fair CLR 80.6 35.6 20% 79 29.99 0.0
04 13:55 Vrbl 5 G 13 10.00 Fair CLR 78.8 35.6 21% 78 30.01 0.0
04 13:40 SW 8 G 15 10.00 Fair CLR 78.8 37.4 23% 78 30.01 0.0
04 13:15 W 8 10.00 Fair CLR 77 39.2 26% 77 30.02 0.0
04 12:55 W 9 10.00 Fair CLR 77 39.2 26% 77 30.03 0.0
04 12:35 W 10 10.00 Fair CLR 77 41 28% 78 30.03 0.0
04 12:15 W 12 10.00 Fair CLR 77 41 28% 78 30.04 0.0
04 11:55 W 12 10.00 Fair CLR 75.2 41 29% 77 30.04 0.0
04 11:35 W 9 10.00 Fair CLR 75.2 41 29% 77 30.05 0.0
04 11:15 W 10 10.00 Fair CLR 73.4 41 31% 30.05 0.0
04 10:55 W 9 10.00 Fair CLR 71.6 44.6 38% 30.06 0.0
04 10:35 NW 7 10.00 Fair CLR 69.8 46.4 43% 30.06 0.0
04 10:15 Vrbl 7 10.00 Fair CLR 66.2 48.2 52% 30.06 0.0
04 09:55 Vrbl 6 10.00 Fair CLR 64.4 48.2 56% 30.06 0.0
04 09:35 W 6 10.00 Fair CLR 62.6 50 64% 30.06 0.0
04 09:15 W 7 10.00 Fair CLR 60.8 50 68% 30.05 0.0
04 08:55 W 7 10.00 Fair CLR 59 50 72% 30.05 0.0
04 08:35 W 6 10.00 Fair CLR 55.4 50 82% 30.06 0.0
04 08:15 Vrbl 3 10.00 Fair CLR 53.6 51.8 94% 30.06 0.0
04 07:55 Calm 10.00 Fair CLR 50 50 100% 30.05 0.0
04 07:35 Calm 6.00 Fog/Mist CLR 48.2 48.2 100% 30.05 0.0
04 07:15 Calm 2.00 Fog/Mist CLR 46.4 46.4 100% 30.05 0.0
04 06:55 Calm 0.50 Fog VV005 44.6 44.6 100% 30.05 0.0
04 06:35 Calm 0.15 Fog BKN018 44.6 44.6 100% 30.05 0.0
04 06:15 Calm 1.75 Fog/Mist SCT018 46.4 46.4 100% 30.05 0.0
04 05:55 Calm 4.00 Fog/Mist FEW016 46.4 46.4 100% 30.06 0.0
04 05:35 Calm 2.00 Fog/Mist CLR 46.4 46.4 100% 30.05 0.0
04 05:15 Calm 7.00 Fair CLR 48.2 46.4 94% 30.05 0.0
04 04:55 Calm 10.00 Fair CLR 50 46.4 88% 30.05 0.0
04 04:35 Calm 10.00 Fair CLR 50 48.2 94% 30.04 0.0
04 04:15 SW 5 10.00 Fair CLR 50 48.2 94% 49 30.05 0.0
04 03:55 SW 5 10.00 Fair CLR 51.8 48.2 88% 30.05 0.0
04 03:35 SW 5 10.00 Fair CLR 51.8 48.2 88% 30.05 0.0
04 03:15 W 5 10.00 Fair CLR 51.8 48.2 88% 30.05 0.0
04 02:55 W 6 10.00 Fair CLR 53.6 48.2 82% 30.05 0.0
04 02:35 SW 8 10.00 Fair CLR 53.6 48.2 82% 30.05 0.0
04 02:15 SW 7 10.00 Fair CLR 53.6 46.4 77% 30.05 0.0
04 01:55 SW 5 10.00 Fair CLR 51.8 46.4 82% 30.06 0.0
04 01:35 W 6 10.00 Fair CLR 51.8 44.6 77% 30.06 0.0
Date Time (edt) Wind (mph) Vis. (mi.) Weather Sky Cond. Air Dwpt Max. Min. Relative Humidity Wind Chill (°F) Heat Index (°F) altimeter (in) sea level (mb) 1 hr 3 hr 6 hr
6 hour
Temperature (ºF) Pressure Precipitation (in)